sensor_id;sensor_type;location;lat;lon;timestamp;temperature;humidity
66576;SHT31;53428;47.686;16.584;2023-05-07T00:04:10;12.19;99.99
66576;SHT31;53428;47.686;16.584;2023-05-07T00:09:10;12.28;99.99
66576;SHT31;53428;47.686;16.584;2023-05-07T00:14:09;12.23;99.99
66576;SHT31;53428;47.686;16.584;2023-05-07T00:19:09;12.11;99.99
66576;SHT31;53428;47.686;16.584;2023-05-07T00:24:08;12.09;99.99
66576;SHT31;53428;47.686;16.584;2023-05-07T00:29:07;11.98;99.99
66576;SHT31;53428;47.686;16.584;2023-05-07T00:34:07;12.01;99.99
66576;SHT31;53428;47.686;16.584;2023-05-07T00:39:06;12.05;99.99
66576;SHT31;53428;47.686;16.584;2023-05-07T00:44:06;12.01;99.99
66576;SHT31;53428;47.686;16.584;2023-05-07T00:49:06;11.99;99.99
66576;SHT31;53428;47.686;16.584;2023-05-07T00:54:05;11.87;99.99
66576;SHT31;53428;47.686;16.584;2023-05-07T00:59:06;11.91;99.99
66576;SHT31;53428;47.686;16.584;2023-05-07T01:04:05;11.78;99.99
66576;SHT31;53428;47.686;16.584;2023-05-07T01:09:05;11.77;99.99
66576;SHT31;53428;47.686;16.584;2023-05-07T01:14:04;11.75;99.99
66576;SHT31;53428;47.686;16.584;2023-05-07T01:19:04;11.81;99.99
66576;SHT31;53428;47.686;16.584;2023-05-07T01:24:04;11.91;99.99
66576;SHT31;53428;47.686;16.584;2023-05-07T01:29:04;11.92;99.99
66576;SHT31;53428;47.686;16.584;2023-05-07T01:34:04;12.12;99.99
66576;SHT31;53428;47.686;16.584;2023-05-07T01:39:06;12.16;99.99
66576;SHT31;53428;47.686;16.584;2023-05-07T01:44:06;12.05;99.99
66576;SHT31;53428;47.686;16.584;2023-05-07T01:49:06;11.82;99.99
66576;SHT31;53428;47.686;16.584;2023-05-07T01:54:05;11.57;99.99
66576;SHT31;53428;47.686;16.584;2023-05-07T01:59:05;11.37;99.99
66576;SHT31;53428;47.686;16.584;2023-05-07T02:04:05;11.54;99.99
66576;SHT31;53428;47.686;16.584;2023-05-07T02:09:04;11.51;99.99
66576;SHT31;53428;47.686;16.584;2023-05-07T02:14:04;11.60;99.99
66576;SHT31;53428;47.686;16.584;2023-05-07T02:19:03;11.50;99.99
66576;SHT31;53428;47.686;16.584;2023-05-07T02:24:03;11.54;99.99
66576;SHT31;53428;47.686;16.584;2023-05-07T02:29:02;11.57;99.99
66576;SHT31;53428;47.686;16.584;2023-05-07T02:34:02;11.58;99.99
66576;SHT31;53428;47.686;16.584;2023-05-07T02:39:01;11.73;99.99
66576;SHT31;53428;47.686;16.584;2023-05-07T02:44:01;11.75;99.99
66576;SHT31;53428;47.686;16.584;2023-05-07T02:49:01;11.78;99.99
66576;SHT31;53428;47.686;16.584;2023-05-07T02:54:00;11.84;99.99
66576;SHT31;53428;47.686;16.584;2023-05-07T02:59:00;11.85;99.99
66576;SHT31;53428;47.686;16.584;2023-05-07T03:04:00;11.85;99.99
66576;SHT31;53428;47.686;16.584;2023-05-07T03:08:59;11.75;99.99
66576;SHT31;53428;47.686;16.584;2023-05-07T03:13:59;11.81;99.99
66576;SHT31;53428;47.686;16.584;2023-05-07T03:18:58;11.87;99.99
66576;SHT31;53428;47.686;16.584;2023-05-07T03:23:57;11.78;99.99
66576;SHT31;53428;47.686;16.584;2023-05-07T03:28:57;11.78;99.99
66576;SHT31;53428;47.686;16.584;2023-05-07T03:33:57;11.75;99.99
66576;SHT31;53428;47.686;16.584;2023-05-07T03:38:57;11.66;99.99
66576;SHT31;53428;47.686;16.584;2023-05-07T03:43:56;11.64;99.99
66576;SHT31;53428;47.686;16.584;2023-05-07T03:48:55;11.63;99.99
66576;SHT31;53428;47.686;16.584;2023-05-07T03:53:55;11.79;99.99
66576;SHT31;53428;47.686;16.584;2023-05-07T03:58:56;11.81;99.99
66576;SHT31;53428;47.686;16.584;2023-05-07T04:03:55;11.92;99.99
66576;SHT31;53428;47.686;16.584;2023-05-07T04:08:55;11.99;99.99
66576;SHT31;53428;47.686;16.584;2023-05-07T04:13:54;12.12;99.99
66576;SHT31;53428;47.686;16.584;2023-05-07T04:18:54;12.21;99.99
66576;SHT31;53428;47.686;16.584;2023-05-07T04:23:53;12.35;99.99
66576;SHT31;53428;47.686;16.584;2023-05-07T04:28:52;12.54;99.99
66576;SHT31;53428;47.686;16.584;2023-05-07T04:33:52;12.61;99.99
66576;SHT31;53428;47.686;16.584;2023-05-07T04:38:51;12.74;99.99
66576;SHT31;53428;47.686;16.584;2023-05-07T04:43:51;12.88;99.99
66576;SHT31;53428;47.686;16.584;2023-05-07T04:48:51;13.01;99.99
66576;SHT31;53428;47.686;16.584;2023-05-07T04:53:50;13.04;99.99
66576;SHT31;53428;47.686;16.584;2023-05-07T04:58:49;13.04;99.99
66576;SHT31;53428;47.686;16.584;2023-05-07T05:03:49;13.12;99.99
66576;SHT31;53428;47.686;16.584;2023-05-07T05:08:48;13.16;99.99
66576;SHT31;53428;47.686;16.584;2023-05-07T05:13:47;13.40;99.99
66576;SHT31;53428;47.686;16.584;2023-05-07T05:18:48;13.53;99.35
66576;SHT31;53428;47.686;16.584;2023-05-07T05:23:48;13.74;99.12
66576;SHT31;53428;47.686;16.584;2023-05-07T05:28:47;13.91;98.26
66576;SHT31;53428;47.686;16.584;2023-05-07T05:33:46;13.94;97.24
66576;SHT31;53428;47.686;16.584;2023-05-07T05:38:46;13.98;96.89
66576;SHT31;53428;47.686;16.584;2023-05-07T05:43:45;13.88;97.31
66576;SHT31;53428;47.686;16.584;2023-05-07T05:48:46;14.03;95.99
66576;SHT31;53428;47.686;16.584;2023-05-07T05:53:45;14.11;95.72
66576;SHT31;53428;47.686;16.584;2023-05-07T05:58:45;14.22;95.65
66576;SHT31;53428;47.686;16.584;2023-05-07T06:03:45;14.21;95.59
66576;SHT31;53428;47.686;16.584;2023-05-07T06:08:44;14.24;95.93
66576;SHT31;53428;47.686;16.584;2023-05-07T06:13:44;14.17;95.79
66576;SHT31;53428;47.686;16.584;2023-05-07T06:18:43;14.08;96.52
66576;SHT31;53428;47.686;16.584;2023-05-07T06:23:45;14.39;95.16
66576;SHT31;53428;47.686;16.584;2023-05-07T06:28:44;14.76;93.68
66576;SHT31;53428;47.686;16.584;2023-05-07T06:33:44;14.79;93.19
66576;SHT31;53428;47.686;16.584;2023-05-07T06:38:44;14.77;93.64
66576;SHT31;53428;47.686;16.584;2023-05-07T06:43:43;15.10;92.80
66576;SHT31;53428;47.686;16.584;2023-05-07T06:48:43;15.00;92.35
66576;SHT31;53428;47.686;16.584;2023-05-07T06:53:42;15.02;93.02
66576;SHT31;53428;47.686;16.584;2023-05-07T06:58:42;15.59;90.92
66576;SHT31;53428;47.686;16.584;2023-05-07T07:03:41;15.41;90.87
66576;SHT31;53428;47.686;16.584;2023-05-07T07:08:40;15.57;90.21
66576;SHT31;53428;47.686;16.584;2023-05-07T07:13:40;15.41;89.81
66576;SHT31;53428;47.686;16.584;2023-05-07T07:18:39;15.51;90.24
66576;SHT31;53428;47.686;16.584;2023-05-07T07:23:39;15.31;89.70
66576;SHT31;53428;47.686;16.584;2023-05-07T07:28:47;15.30;91.07
66576;SHT31;53428;47.686;16.584;2023-05-07T07:33:47;15.41;91.25
66576;SHT31;53428;47.686;16.584;2023-05-07T07:38:46;15.44;90.13
66576;SHT31;53428;47.686;16.584;2023-05-07T07:43:45;16.23;87.25
66576;SHT31;53428;47.686;16.584;2023-05-07T07:48:45;16.75;84.92
66576;SHT31;53428;47.686;16.584;2023-05-07T07:53:45;16.36;85.93
66576;SHT31;53428;47.686;16.584;2023-05-07T07:58:44;16.43;85.72
66576;SHT31;53428;47.686;16.584;2023-05-07T08:03:44;16.63;84.78
66576;SHT31;53428;47.686;16.584;2023-05-07T08:08:43;16.91;84.08
66576;SHT31;53428;47.686;16.584;2023-05-07T08:13:43;17.03;82.48
66576;SHT31;53428;47.686;16.584;2023-05-07T08:18:42;17.23;83.10
66576;SHT31;53428;47.686;16.584;2023-05-07T08:23:41;17.85;80.96
66576;SHT31;53428;47.686;16.584;2023-05-07T08:28:41;18.21;79.29
66576;SHT31;53428;47.686;16.584;2023-05-07T08:33:40;17.51;81.15
66576;SHT31;53428;47.686;16.584;2023-05-07T08:38:39;17.67;79.58
66576;SHT31;53428;47.686;16.584;2023-05-07T08:43:41;17.78;79.94
66576;SHT31;53428;47.686;16.584;2023-05-07T08:48:42;18.10;78.92
66576;SHT31;53428;47.686;16.584;2023-05-07T08:53:42;18.80;77.21
66576;SHT31;53428;47.686;16.584;2023-05-07T08:58:43;18.68;76.18
66576;SHT31;53428;47.686;16.584;2023-05-07T09:03:44;18.73;76.58
66576;SHT31;53428;47.686;16.584;2023-05-07T09:08:52;18.93;75.48
66576;SHT31;53428;47.686;16.584;2023-05-07T09:13:56;19.19;75.22
66576;SHT31;53428;47.686;16.584;2023-05-07T09:18:58;19.01;75.45
66576;SHT31;53428;47.686;16.584;2023-05-07T09:23:57;19.25;74.44
66576;SHT31;53428;47.686;16.584;2023-05-07T09:28:56;19.70;72.41
66576;SHT31;53428;47.686;16.584;2023-05-07T09:33:57;19.10;71.95
66576;SHT31;53428;47.686;16.584;2023-05-07T09:38:59;18.67;73.85
66576;SHT31;53428;47.686;16.584;2023-05-07T09:43:59;19.55;70.58
66576;SHT31;53428;47.686;16.584;2023-05-07T09:49:01;19.48;70.35
66576;SHT31;53428;47.686;16.584;2023-05-07T09:54:02;20.11;69.74
66576;SHT31;53428;47.686;16.584;2023-05-07T09:59:02;20.29;67.56
66576;SHT31;53428;47.686;16.584;2023-05-07T10:04:02;20.45;66.30
66576;SHT31;53428;47.686;16.584;2023-05-07T10:09:07;20.27;63.85
66576;SHT31;53428;47.686;16.584;2023-05-07T10:14:07;20.59;65.47
66576;SHT31;53428;47.686;16.584;2023-05-07T10:19:09;20.31;66.81
66576;SHT31;53428;47.686;16.584;2023-05-07T10:24:21;21.34;65.20
66576;SHT31;53428;47.686;16.584;2023-05-07T10:34:40;20.89;62.87
66576;SHT31;53428;47.686;16.584;2023-05-07T10:39:41;20.03;66.08
66576;SHT31;53428;47.686;16.584;2023-05-07T10:44:41;20.68;66.51
66576;SHT31;53428;47.686;16.584;2023-05-07T10:54:46;20.34;67.19
66576;SHT31;53428;47.686;16.584;2023-05-07T10:59:45;21.17;65.27
66576;SHT31;53428;47.686;16.584;2023-05-07T11:04:45;21.83;62.67
66576;SHT31;53428;47.686;16.584;2023-05-07T11:14:53;23.15;59.33
66576;SHT31;53428;47.686;16.584;2023-05-07T11:19:54;22.37;61.63
66576;SHT31;53428;47.686;16.584;2023-05-07T11:24:54;20.64;64.92
66576;SHT31;53428;47.686;16.584;2023-05-07T11:29:53;22.03;60.54
66576;SHT31;53428;47.686;16.584;2023-05-07T11:34:58;22.51;59.87
66576;SHT31;53428;47.686;16.584;2023-05-07T11:40:07;22.14;62.13
66576;SHT31;53428;47.686;16.584;2023-05-07T11:45:08;21.81;62.27
66576;SHT31;53428;47.686;16.584;2023-05-07T11:50:08;22.75;59.65
66576;SHT31;53428;47.686;16.584;2023-05-07T11:55:09;22.56;60.55
66576;SHT31;53428;47.686;16.584;2023-05-07T12:00:09;21.93;61.38
66576;SHT31;53428;47.686;16.584;2023-05-07T12:05:08;21.26;61.44
66576;SHT31;53428;47.686;16.584;2023-05-07T12:10:08;21.30;61.70
66576;SHT31;53428;47.686;16.584;2023-05-07T12:15:08;21.48;61.47
66576;SHT31;53428;47.686;16.584;2023-05-07T12:20:08;23.11;58.16
66576;SHT31;53428;47.686;16.584;2023-05-07T12:25:07;21.99;61.09
66576;SHT31;53428;47.686;16.584;2023-05-07T12:30:10;20.86;63.15
66576;SHT31;53428;47.686;16.584;2023-05-07T12:35:09;21.78;61.82
66576;SHT31;53428;47.686;16.584;2023-05-07T12:40:10;20.47;65.22
66576;SHT31;53428;47.686;16.584;2023-05-07T12:45:15;21.30;62.81
66576;SHT31;53428;47.686;16.584;2023-05-07T12:50:15;20.75;64.18
66576;SHT31;53428;47.686;16.584;2023-05-07T12:55:16;22.60;60.17
66576;SHT31;53428;47.686;16.584;2023-05-07T13:00:16;21.38;62.24
66576;SHT31;53428;47.686;16.584;2023-05-07T13:05:15;20.93;62.45
66576;SHT31;53428;47.686;16.584;2023-05-07T13:10:15;21.10;63.84
66576;SHT31;53428;47.686;16.584;2023-05-07T13:15:14;21.45;63.58
66576;SHT31;53428;47.686;16.584;2023-05-07T13:20:13;21.66;61.98
66576;SHT31;53428;47.686;16.584;2023-05-07T13:25:12;21.75;61.56
66576;SHT31;53428;47.686;16.584;2023-05-07T13:30:12;22.03;62.19
66576;SHT31;53428;47.686;16.584;2023-05-07T13:35:11;21.62;63.62
66576;SHT31;53428;47.686;16.584;2023-05-07T13:40:11;20.82;64.32
66576;SHT31;53428;47.686;16.584;2023-05-07T13:45:10;20.90;64.88
66576;SHT31;53428;47.686;16.584;2023-05-07T13:50:10;20.32;65.52
66576;SHT31;53428;47.686;16.584;2023-05-07T13:55:10;20.45;64.01
66576;SHT31;53428;47.686;16.584;2023-05-07T14:00:10;21.08;63.72
66576;SHT31;53428;47.686;16.584;2023-05-07T14:05:09;21.03;65.04
66576;SHT31;53428;47.686;16.584;2023-05-07T14:10:09;21.22;63.97
66576;SHT31;53428;47.686;16.584;2023-05-07T14:15:10;21.43;63.69
66576;SHT31;53428;47.686;16.584;2023-05-07T14:20:10;20.61;64.15
66576;SHT31;53428;47.686;16.584;2023-05-07T14:25:09;21.99;62.44
66576;SHT31;53428;47.686;16.584;2023-05-07T14:30:09;23.81;57.72
66576;SHT31;53428;47.686;16.584;2023-05-07T14:35:09;22.27;61.48
66576;SHT31;53428;47.686;16.584;2023-05-07T14:40:09;21.07;63.95
66576;SHT31;53428;47.686;16.584;2023-05-07T14:45:09;20.61;64.07
66576;SHT31;53428;47.686;16.584;2023-05-07T14:50:08;20.80;64.07
66576;SHT31;53428;47.686;16.584;2023-05-07T14:55:08;20.22;64.60
66576;SHT31;53428;47.686;16.584;2023-05-07T15:00:08;20.62;63.66
66576;SHT31;53428;47.686;16.584;2023-05-07T15:05:08;20.24;64.89
66576;SHT31;53428;47.686;16.584;2023-05-07T15:10:08;20.49;64.22
66576;SHT31;53428;47.686;16.584;2023-05-07T15:15:08;20.08;64.17
66576;SHT31;53428;47.686;16.584;2023-05-07T15:20:08;19.90;63.87
66576;SHT31;53428;47.686;16.584;2023-05-07T15:25:07;20.38;63.07
66576;SHT31;53428;47.686;16.584;2023-05-07T15:30:07;20.71;62.43
66576;SHT31;53428;47.686;16.584;2023-05-07T15:35:09;21.20;61.16
66576;SHT31;53428;47.686;16.584;2023-05-07T15:40:08;21.41;59.95
66576;SHT31;53428;47.686;16.584;2023-05-07T15:45:08;21.02;61.53
66576;SHT31;53428;47.686;16.584;2023-05-07T15:50:08;21.30;60.35
66576;SHT31;53428;47.686;16.584;2023-05-07T15:55:08;20.32;62.50
66576;SHT31;53428;47.686;16.584;2023-05-07T16:00:08;21.68;60.29
66576;SHT31;53428;47.686;16.584;2023-05-07T16:05:09;21.17;60.27
66576;SHT31;53428;47.686;16.584;2023-05-07T16:10:10;21.43;59.47
66576;SHT31;53428;47.686;16.584;2023-05-07T16:15:10;20.34;62.77
66576;SHT31;53428;47.686;16.584;2023-05-07T16:20:10;19.46;64.38
66576;SHT31;53428;47.686;16.584;2023-05-07T16:25:11;19.42;65.13
66576;SHT31;53428;47.686;16.584;2023-05-07T16:30:12;19.22;64.62
66576;SHT31;53428;47.686;16.584;2023-05-07T16:35:13;18.85;64.86
66576;SHT31;53428;47.686;16.584;2023-05-07T16:40:12;18.59;65.69
66576;SHT31;53428;47.686;16.584;2023-05-07T16:45:37;18.73;65.66
66576;SHT31;53428;47.686;16.584;2023-05-07T16:50:36;18.56;65.82
66576;SHT31;53428;47.686;16.584;2023-05-07T16:55:36;18.01;67.57
66576;SHT31;53428;47.686;16.584;2023-05-07T17:00:38;18.01;66.76
66576;SHT31;53428;47.686;16.584;2023-05-07T17:05:38;17.54;68.46
66576;SHT31;53428;47.686;16.584;2023-05-07T17:10:37;17.05;68.80
66576;SHT31;53428;47.686;16.584;2023-05-07T17:15:37;16.86;69.21
66576;SHT31;53428;47.686;16.584;2023-05-07T17:20:36;16.75;69.72
66576;SHT31;53428;47.686;16.584;2023-05-07T17:25:38;16.41;70.81
66576;SHT31;53428;47.686;16.584;2023-05-07T17:30:37;16.26;71.64
66576;SHT31;53428;47.686;16.584;2023-05-07T17:35:36;16.03;71.80
66576;SHT31;53428;47.686;16.584;2023-05-07T17:40:36;15.51;72.15
66576;SHT31;53428;47.686;16.584;2023-05-07T17:45:35;15.21;72.09
66576;SHT31;53428;47.686;16.584;2023-05-07T17:50:34;14.83;72.51
66576;SHT31;53428;47.686;16.584;2023-05-07T17:55:34;14.73;72.98
66576;SHT31;53428;47.686;16.584;2023-05-07T18:00:38;14.48;73.85
66576;SHT31;53428;47.686;16.584;2023-05-07T18:05:37;14.28;74.66
66576;SHT31;53428;47.686;16.584;2023-05-07T18:10:38;14.10;74.86
66576;SHT31;53428;47.686;16.584;2023-05-07T18:15:38;13.81;74.88
66576;SHT31;53428;47.686;16.584;2023-05-07T18:20:37;13.70;74.74
66576;SHT31;53428;47.686;16.584;2023-05-07T18:25:36;13.45;74.98
66576;SHT31;53428;47.686;16.584;2023-05-07T18:30:36;13.26;75.81
66576;SHT31;53428;47.686;16.584;2023-05-07T18:35:35;13.11;76.34
66576;SHT31;53428;47.686;16.584;2023-05-07T18:40:35;12.95;76.72
66576;SHT31;53428;47.686;16.584;2023-05-07T18:45:34;12.68;77.52
66576;SHT31;53428;47.686;16.584;2023-05-07T18:50:34;12.67;77.53
66576;SHT31;53428;47.686;16.584;2023-05-07T18:55:33;12.61;77.65
66576;SHT31;53428;47.686;16.584;2023-05-07T19:00:32;12.43;78.10
66576;SHT31;53428;47.686;16.584;2023-05-07T19:05:32;12.33;77.29
66576;SHT31;53428;47.686;16.584;2023-05-07T19:10:31;12.21;77.84
66576;SHT31;53428;47.686;16.584;2023-05-07T19:15:30;12.06;77.72
66576;SHT31;53428;47.686;16.584;2023-05-07T19:20:30;11.99;77.81
66576;SHT31;53428;47.686;16.584;2023-05-07T19:25:29;11.75;78.65
66576;SHT31;53428;47.686;16.584;2023-05-07T19:30:28;11.58;78.18
66576;SHT31;53428;47.686;16.584;2023-05-07T19:35:27;11.29;78.66
66576;SHT31;53428;47.686;16.584;2023-05-07T19:40:27;10.98;78.90
66576;SHT31;53428;47.686;16.584;2023-05-07T19:45:26;10.88;78.72
66576;SHT31;53428;47.686;16.584;2023-05-07T19:50:25;10.69;78.37
66576;SHT31;53428;47.686;16.584;2023-05-07T19:55:24;10.48;79.12
66576;SHT31;53428;47.686;16.584;2023-05-07T20:00:24;10.36;79.66
66576;SHT31;53428;47.686;16.584;2023-05-07T20:05:29;10.21;79.84
66576;SHT31;53428;47.686;16.584;2023-05-07T20:10:29;10.03;80.66
66576;SHT31;53428;47.686;16.584;2023-05-07T20:15:28;10.00;80.40
66576;SHT31;53428;47.686;16.584;2023-05-07T20:20:27;9.96;80.63
66576;SHT31;53428;47.686;16.584;2023-05-07T20:25:27;9.89;81.18
66576;SHT31;53428;47.686;16.584;2023-05-07T20:30:26;9.78;81.30
66576;SHT31;53428;47.686;16.584;2023-05-07T20:35:26;9.68;81.57
66576;SHT31;53428;47.686;16.584;2023-05-07T20:40:25;9.74;81.39
66576;SHT31;53428;47.686;16.584;2023-05-07T20:45:25;9.62;81.45
66576;SHT31;53428;47.686;16.584;2023-05-07T20:50:24;9.65;81.87
66576;SHT31;53428;47.686;16.584;2023-05-07T20:55:24;9.55;82.37
66576;SHT31;53428;47.686;16.584;2023-05-07T21:00:23;9.55;82.54
66576;SHT31;53428;47.686;16.584;2023-05-07T21:05:23;9.45;82.13
66576;SHT31;53428;47.686;16.584;2023-05-07T21:10:22;9.31;82.32
66576;SHT31;53428;47.686;16.584;2023-05-07T21:15:21;9.20;82.85
66576;SHT31;53428;47.686;16.584;2023-05-07T21:20:20;9.01;82.96
66576;SHT31;53428;47.686;16.584;2023-05-07T21:25:19;8.91;83.13
66576;SHT31;53428;47.686;16.584;2023-05-07T21:30:18;8.94;82.99
66576;SHT31;53428;47.686;16.584;2023-05-07T21:35:18;8.84;83.25
66576;SHT31;53428;47.686;16.584;2023-05-07T21:40:17;8.79;83.52
66576;SHT31;53428;47.686;16.584;2023-05-07T21:45:16;8.70;83.24
66576;SHT31;53428;47.686;16.584;2023-05-07T21:50:15;8.69;83.17
66576;SHT31;53428;47.686;16.584;2023-05-07T21:55:16;8.63;83.26
66576;SHT31;53428;47.686;16.584;2023-05-07T22:00:15;8.55;83.76
66576;SHT31;53428;47.686;16.584;2023-05-07T22:05:15;8.48;84.32
66576;SHT31;53428;47.686;16.584;2023-05-07T22:10:14;8.37;85.09
66576;SHT31;53428;47.686;16.584;2023-05-07T22:15:19;8.37;85.54
66576;SHT31;53428;47.686;16.584;2023-05-07T22:20:19;8.31;85.99
66576;SHT31;53428;47.686;16.584;2023-05-07T22:25:19;8.28;86.46
66576;SHT31;53428;47.686;16.584;2023-05-07T22:30:18;8.31;86.42
66576;SHT31;53428;47.686;16.584;2023-05-07T22:35:18;8.28;86.23
66576;SHT31;53428;47.686;16.584;2023-05-07T22:40:17;8.21;86.72
66576;SHT31;53428;47.686;16.584;2023-05-07T22:45:16;8.05;86.90
66576;SHT31;53428;47.686;16.584;2023-05-07T22:50:15;8.01;86.65
66576;SHT31;53428;47.686;16.584;2023-05-07T22:55:15;8.01;86.44
66576;SHT31;53428;47.686;16.584;2023-05-07T23:00:14;7.95;86.39
66576;SHT31;53428;47.686;16.584;2023-05-07T23:05:14;7.87;86.24
66576;SHT31;53428;47.686;16.584;2023-05-07T23:10:13;7.86;86.38
66576;SHT31;53428;47.686;16.584;2023-05-07T23:15:16;7.89;85.55
66576;SHT31;53428;47.686;16.584;2023-05-07T23:20:15;7.87;85.47
66576;SHT31;53428;47.686;16.584;2023-05-07T23:25:15;7.84;85.25
66576;SHT31;53428;47.686;16.584;2023-05-07T23:30:16;7.79;85.28
66576;SHT31;53428;47.686;16.584;2023-05-07T23:35:15;7.77;85.27
66576;SHT31;53428;47.686;16.584;2023-05-07T23:40:16;7.70;85.15
66576;SHT31;53428;47.686;16.584;2023-05-07T23:45:15;7.63;85.20
66576;SHT31;53428;47.686;16.584;2023-05-07T23:50:14;7.61;85.01
66576;SHT31;53428;47.686;16.584;2023-05-07T23:55:14;7.52;85.07
